Igarape Grande, Brazil
Current Conditions -  °F | °C
As of 2:00 PM on Monday 22 Dec 2014 (Local Time) from SBTE Reporting Station
Scattered Clouds Scattered Clouds  
Wind Chill: 95°   Ceiling: Unl
Heat Index: 97°   Visibility: 6mi
Dew Point: 64°   Wind: 6mph
Humidity: 36%   Direction: 190°S
Pressure: 29.8"   Gusts: NA
Location:  4.57°S, 44.82°W
Report Text: SBTE 221700Z 19005KT 9999 SCT020 35/18 Q1009
Loading
Personal Weather Stations






























Interactive Weather Map New forecast layout! Learn more

10-Day Weather Forecast

Advertisements
Track Severe Weather on mobile